Time;durP1;ratioP1;P1;durP2;ratioP2;P2;SDS_P1;SDS_P2;PMS_P1;PMS_P2;Temp;Humidity;BMP_temperature;BMP_pressure;BME280_temperature;BME280_humidity;BME280_pressure;Samples;Min_cycle;Max_cycle;Signal;HPM_P1;HPM_P2
2021/03/10 00:01:05;;;;;;;36.22;24.02;;;4.00;78.10;;;2.13;71.06;96099.66;4960503;28;20061;-69
2021/03/10 00:03:30;;;;;;;38.92;25.10;;;4.10;77.90;;;2.13;70.58;96095.28;4979184;28;20133;-70
2021/03/10 00:05:56;;;;;;;36.13;24.48;;;4.00;78.10;;;2.14;71.29;96096.09;4978109;28;20035;-69
2021/03/10 00:08:22;;;;;;;37.72;25.48;;;4.00;78.10;;;2.12;71.00;96087.66;4964262;28;20405;-70
2021/03/10 00:10:48;;;;;;;38.75;25.60;;;3.90;78.30;;;2.08;70.60;96091.47;4980032;28;20128;-69
2021/03/10 00:13:13;;;;;;;38.80;25.50;;;3.90;78.30;;;2.08;71.07;96097.47;4943281;28;20117;-70
2021/03/10 00:15:39;;;;;;;36.90;25.65;;;3.90;78.40;;;2.07;71.13;96095.03;4970783;28;20027;-70
2021/03/10 00:18:05;;;;;;;36.75;25.40;;;4.00;78.30;;;2.10;71.41;96097.34;4964062;28;20033;-70
2021/03/10 00:20:31;;;;;;;37.65;24.50;;;4.10;78.10;;;2.11;71.05;96096.38;4958260;28;20097;-68
2021/03/10 00:22:56;;;;;;;36.95;26.35;;;4.00;78.10;;;2.11;71.49;96091.19;4969001;28;20041;-68
2021/03/10 00:25:23;;;;;;;40.95;26.15;;;4.10;78.20;;;2.09;71.83;96093.13;4940825;28;20053;-67
2021/03/10 00:27:49;;;;;;;38.67;25.88;;;3.90;78.60;;;2.08;71.70;96102.69;4987790;28;20030;-69
2021/03/10 00:30:16;;;;;;;39.17;24.85;;;3.90;78.60;;;2.08;72.11;96096.66;4976305;28;20054;-66
2021/03/10 00:32:41;;;;;;;37.90;25.17;;;3.90;78.50;;;2.05;71.76;96099.53;4971932;28;20398;-68
2021/03/10 00:35:08;;;;;;;39.92;25.60;;;3.80;78.80;;;2.01;71.63;96104.16;4955969;28;20030;-65
2021/03/10 00:37:34;;;;;;;39.20;25.15;;;3.80;79.10;;;2.02;72.24;96104.97;4949235;28;20038;-65
2021/03/10 00:39:59;;;;;;;38.38;26.05;;;3.80;78.90;;;1.98;71.83;96107.03;4957622;28;20473;-64
2021/03/10 00:42:25;;;;;;;40.33;26.63;;;3.80;78.90;;;1.96;71.44;96108.13;4961693;28;20564;-65
2021/03/10 00:44:51;;;;;;;39.33;26.38;;;3.70;79.30;;;1.93;72.04;96109.22;4974425;28;20047;-65
2021/03/10 00:47:17;;;;;;;37.63;26.90;;;3.70;79.40;;;1.93;72.41;96108.38;4965573;28;20462;-66
2021/03/10 00:49:43;;;;;;;39.95;26.88;;;3.80;79.40;;;1.89;72.44;96096.66;4966934;28;20565;-65
2021/03/10 00:52:09;;;;;;;40.45;26.98;;;3.70;79.70;;;1.91;72.65;96100.75;4951888;28;20110;-65
2021/03/10 00:54:35;;;;;;;45.00;27.40;;;3.70;79.60;;;1.87;72.97;96098.56;4968502;28;20027;-66
2021/03/10 00:57:00;;;;;;;40.65;26.75;;;3.70;79.90;;;1.91;72.94;96099.94;4942268;28;20046;-67
2021/03/10 00:59:26;;;;;;;40.17;27.33;;;3.80;79.50;;;1.89;73.14;96094.88;4941469;28;20466;-65
2021/03/10 01:01:52;;;;;;;40.35;27.30;;;3.70;79.70;;;1.85;72.98;96096.09;4997687;28;20461;-67
2021/03/10 01:04:18;;;;;;;42.25;27.70;;;3.60;80.20;;;1.84;73.11;96092.69;4960973;28;20045;-65
2021/03/10 01:06:43;;;;;;;43.25;28.50;;;3.60;80.10;;;1.83;73.42;96093.66;4962313;23;20348;-70
2021/03/10 01:09:09;;;;;;;44.63;28.92;;;3.60;80.20;;;1.81;73.24;96095.56;4966078;28;20066;-68
2021/03/10 01:11:35;;;;;;;44.97;29.00;;;3.50;80.20;;;1.77;72.96;96095.94;4965380;28;20034;-69
2021/03/10 01:14:01;;;;;;;45.13;29.20;;;3.40;80.50;;;1.69;73.64;96096.63;4919572;28;20121;-74
2021/03/10 01:16:27;;;;;;;44.33;29.10;;;3.40;81.00;;;1.67;73.21;96082.97;4908031;29;20043;-74
2021/03/10 01:18:53;;;;;;;43.10;28.33;;;3.40;81.10;;;1.65;73.55;96084.88;4944393;28;20035;-74
2021/03/10 01:21:19;;;;;;;48.42;29.73;;;3.50;81.10;;;1.64;73.67;96083.25;4928344;29;20050;-73
2021/03/10 01:23:45;;;;;;;45.33;29.25;;;3.40;81.20;;;1.62;73.81;96094.72;4941510;28;20504;-74
2021/03/10 01:26:10;;;;;;;44.25;29.45;;;3.40;81.20;;;1.61;73.68;96080.13;4919326;28;20122;-76
2021/03/10 01:28:36;;;;;;;46.00;29.95;;;3.40;81.30;;;1.62;73.24;96082.56;4947559;28;20043;-74
2021/03/10 01:31:02;;;;;;;45.67;29.25;;;3.40;81.20;;;1.63;73.89;96079.03;4928157;28;20079;-74
2021/03/10 01:33:27;;;;;;;45.40;28.80;;;3.50;81.20;;;1.60;74.31;96081.88;4929869;28;21995;-72
2021/03/10 01:35:53;;;;;;;48.15;30.83;;;3.40;81.40;;;1.57;74.41;96074.34;4946381;28;20061;-73
2021/03/10 01:38:19;;;;;;;45.72;30.52;;;3.30;81.60;;;1.59;73.93;96072.47;4935197;28;20070;-72
2021/03/10 01:40:45;;;;;;;51.17;31.23;;;3.40;81.40;;;1.55;74.00;96068.47;4943633;28;20047;-73
2021/03/10 01:43:10;;;;;;;49.70;31.50;;;3.30;81.80;;;1.55;74.79;96076.25;4944651;28;20039;-73
2021/03/10 01:45:36;;;;;;;50.70;32.10;;;3.30;81.80;;;1.52;74.64;96069.56;4939771;29;20113;-73
2021/03/10 01:48:09;;;;;;;48.45;31.48;;;3.30;82.10;;;1.55;77.50;96076.25;4948129;28;20133;-73
2021/03/10 01:50:35;;;;;;;50.20;31.58;;;3.40;82.00;;;1.52;74.93;96073.94;4943153;28;20031;-74
2021/03/10 01:53:01;;;;;;;45.08;30.10;;;3.30;82.00;;;1.54;75.07;96072.84;4943066;28;20328;-72
2021/03/10 01:55:27;;;;;;;53.05;32.05;;;3.40;81.70;;;1.55;74.90;96068.47;4947662;28;20039;-74
2021/03/10 01:57:53;;;;;;;50.47;32.42;;;3.40;81.90;;;1.56;75.24;96064.94;4942779;28;20067;-72
2021/03/10 02:00:19;;;;;;;49.38;32.22;;;3.40;81.90;;;1.58;75.23;96062.22;4915136;29;20071;-73
2021/03/10 02:02:45;;;;;;;49.33;31.92;;;3.40;81.90;;;1.58;75.11;96057.84;4944092;28;20039;-73
2021/03/10 02:05:15;;;;;;;47.47;31.40;;;3.40;81.70;;;1.59;76.36;96064.69;4922236;28;20102;-73
2021/03/10 02:08:02;;;;;;;50.20;32.20;;;3.50;81.70;;;1.62;78.83;96059.25;4948300;28;20071;-73
2021/03/10 02:10:44;;;;;;;47.45;30.90;;;3.50;81.80;;;1.65;75.44;96058.97;4947021;28;20077;-73
2021/03/10 02:13:38;;;;;;;47.75;31.48;;;3.50;81.40;;;1.67;78.48;96054.47;4954713;28;20106;-73
2021/03/10 02:16:29;;;;;;;49.67;32.03;;;3.60;81.20;;;1.70;78.54;96053.38;4946591;28;20039;-73
2021/03/10 02:19:16;;;;;;;45.83;30.33;;;3.60;81.10;;;1.68;78.81;96057.88;4916391;28;20028;-73
2021/03/10 02:22:01;;;;;;;48.50;32.15;;;3.50;81.30;;;1.64;78.04;96048.72;4962527;28;20106;-73
2021/03/10 02:24:51;;;;;;;49.10;32.17;;;3.40;81.60;;;1.59;78.56;96046.56;4942259;28;20133;-73
2021/03/10 02:27:51;;;;;;;52.50;32.85;;;3.30;82.10;;;1.54;79.09;96056.47;4941850;28;20082;-73
2021/03/10 02:30:26;;;;;;;47.13;31.60;;;3.30;82.50;;;1.51;77.62;96046.38;4944282;28;20388;-73
2021/03/10 02:33:01;;;;;;;52.90;33.85;;;3.20;82.60;;;1.49;77.56;96048.28;4902590;28;20086;-73
2021/03/10 02:35:28;;;;;;;50.97;32.60;;;3.20;82.60;;;1.50;75.70;96052.53;4915523;29;20458;-73
2021/03/10 02:37:56;;;;;;;52.83;33.65;;;3.20;82.70;;;1.52;76.24;96053.22;4941440;28;20031;-73
2021/03/10 02:40:24;;;;;;;50.78;31.90;;;3.40;82.60;;;1.54;75.85;96056.47;4931910;28;20027;-73
2021/03/10 02:42:50;;;;;;;47.38;31.48;;;3.30;82.50;;;1.56;75.86;96054.56;4937217;28;20047;-73
2021/03/10 02:45:16;;;;;;;53.67;32.65;;;3.40;82.20;;;1.55;75.81;96047.75;4918848;28;20035;-73
2021/03/10 02:47:41;;;;;;;51.47;32.95;;;3.40;82.20;;;1.56;75.61;96049.38;4927622;28;20705;-73
2021/03/10 02:50:08;;;;;;;50.42;31.92;;;3.40;82.10;;;1.57;75.90;96056.22;4938231;28;20038;-73
2021/03/10 02:52:34;;;;;;;53.90;31.45;;;3.40;82.10;;;1.60;75.61;96050.78;4937808;28;20035;-73
2021/03/10 02:55:00;;;;;;;45.83;30.95;;;3.60;81.90;;;1.63;76.00;96047.09;4945465;28;20043;-71
2021/03/10 02:57:26;;;;;;;47.95;31.23;;;3.60;81.60;;;1.66;75.93;96059.78;4934094;29;20035;-72
2021/03/10 02:59:52;;;;;;;49.60;32.05;;;3.60;81.50;;;1.66;75.84;96054.59;4935208;28;20050;-73
2021/03/10 03:02:18;;;;;;;47.88;31.45;;;3.50;81.60;;;1.65;75.90;96048.59;4927282;29;20381;-73
2021/03/10 03:04:43;;;;;;;48.22;31.88;;;3.50;81.70;;;1.66;75.91;96045.03;4934399;28;20035;-73
2021/03/10 03:07:10;;;;;;;47.22;31.33;;;3.50;81.80;;;1.65;76.03;96047.78;4962676;28;20814;-72
2021/03/10 03:09:36;;;;;;;48.47;32.22;;;3.50;82.00;;;1.65;76.22;96048.59;4935325;29;20039;-73
2021/03/10 03:12:03;;;;;;;47.83;32.20;;;3.50;82.00;;;1.67;76.02;96046.69;4952090;28;20052;-67
2021/03/10 03:14:29;;;;;;;50.28;33.47;;;3.60;81.70;;;1.69;75.78;96056.91;4933671;29;20086;-67
2021/03/10 03:16:55;;;;;;;49.22;31.75;;;3.60;81.90;;;1.70;75.89;96054.19;4944707;28;20027;-67
2021/03/10 03:19:20;;;;;;;48.65;31.35;;;3.60;81.80;;;1.71;76.34;96048.03;4934845;28;20048;-67
2021/03/10 03:21:46;;;;;;;46.40;30.80;;;3.60;81.80;;;1.74;75.94;96058.13;4949052;28;20051;-67
2021/03/10 03:24:12;;;;;;;49.97;32.88;;;3.70;81.50;;;1.77;76.29;96047.50;4917484;29;20035;-67
2021/03/10 03:26:38;;;;;;;50.50;33.00;;;3.70;81.40;;;1.78;76.23;96063.88;4946504;28;20035;-66
2021/03/10 03:29:04;;;;;;;50.80;32.38;;;3.60;81.60;;;1.80;76.53;96067.16;4932812;28;20099;-67
2021/03/10 03:31:30;;;;;;;49.33;32.13;;;3.70;81.70;;;1.80;75.88;96067.97;4933559;29;20075;-66
2021/03/10 03:33:56;;;;;;;50.00;31.63;;;3.70;81.50;;;1.83;76.53;96075.50;4919504;28;20039;-67
2021/03/10 03:36:22;;;;;;;50.55;31.52;;;3.70;81.40;;;1.83;76.44;96070.31;4921534;28;20146;-68
2021/03/10 03:38:47;;;;;;;49.75;32.95;;;3.70;81.60;;;1.84;76.48;96064.16;4932042;28;20118;-67
2021/03/10 03:41:13;;;;;;;51.58;33.35;;;3.70;81.70;;;1.88;75.74;96063.91;4961295;28;20038;-67
2021/03/10 03:43:39;;;;;;;47.72;33.20;;;3.80;81.50;;;1.89;76.47;96074.13;4933570;28;20404;-67
2021/03/10 03:46:05;;;;;;;50.50;33.70;;;3.90;81.30;;;1.91;76.58;96074.00;4933035;28;20120;-67
2021/03/10 03:48:31;;;;;;;49.08;32.30;;;3.80;81.50;;;1.90;75.96;96070.56;4933079;28;20035;-69
2021/03/10 03:50:57;;;;;;;50.42;32.60;;;3.80;81.20;;;1.92;75.89;96067.84;4950715;28;20035;-67
2021/03/10 03:53:22;;;;;;;52.88;33.08;;;3.80;81.60;;;1.92;76.06;96068.66;4948028;28;20065;-66
2021/03/10 03:55:48;;;;;;;49.90;33.35;;;3.90;81.10;;;1.93;76.46;96067.72;4933832;28;20051;-67
2021/03/10 03:58:14;;;;;;;49.88;32.95;;;3.90;81.10;;;1.95;75.86;96070.16;4933518;28;20046;-66
2021/03/10 04:00:39;;;;;;;49.10;33.25;;;3.90;80.90;;;1.93;76.48;96064.28;4951783;28;20043;-67
2021/03/10 04:03:05;;;;;;;50.75;31.65;;;3.90;81.10;;;1.96;76.41;96058.84;4946796;28;20045;-66
2021/03/10 04:05:31;;;;;;;52.08;34.00;;;3.90;80.90;;;1.98;76.53;96068.13;4950865;28;20071;-67
2021/03/10 04:08:00;;;;;;;51.92;33.10;;;3.90;80.80;;;2.00;77.30;96062.78;4950725;28;20071;-67
2021/03/10 04:10:31;;;;;;;50.33;33.75;;;3.90;80.80;;;1.99;76.31;96071.53;4940907;28;20086;-67
2021/03/10 04:12:58;;;;;;;49.17;32.58;;;3.80;81.10;;;1.99;76.18;96072.34;4935847;28;20031;-69
2021/03/10 04:15:28;;;;;;;48.40;33.13;;;3.90;81.10;;;1.99;78.08;96071.53;4914021;29;20046;-67
2021/03/10 04:17:54;;;;;;;49.60;33.05;;;3.80;81.00;;;1.97;76.52;96068.25;4931345;28;20030;-66
2021/03/10 04:20:21;;;;;;;54.15;34.70;;;3.90;81.10;;;1.97;77.10;96079.44;4931499;28;20525;-65
2021/03/10 04:22:47;;;;;;;54.85;34.08;;;3.80;81.40;;;1.97;76.71;96068.25;4933317;28;20054;-64
2021/03/10 04:25:14;;;;;;;52.75;34.60;;;3.80;81.20;;;1.95;76.52;96075.34;4935839;28;20399;-64
2021/03/10 04:27:40;;;;;;;51.58;32.50;;;3.70;81.70;;;1.96;76.40;96069.22;4957909;28;20138;-63
2021/03/10 04:30:07;;;;;;;50.63;33.13;;;3.80;81.70;;;1.97;76.64;96078.63;4942938;28;20047;-63
2021/03/10 04:32:33;;;;;;;49.58;32.83;;;3.90;81.50;;;1.97;76.24;96076.03;4950156;28;20028;-65
2021/03/10 04:34:59;;;;;;;50.60;34.63;;;3.80;81.50;;;1.97;76.97;96089.00;4949381;29;20054;-64
2021/03/10 04:37:25;;;;;;;54.95;34.58;;;3.90;81.50;;;2.00;77.14;96093.91;4950135;28;20118;-64
2021/03/10 04:39:51;;;;;;;54.55;34.42;;;3.90;81.20;;;2.00;76.51;96093.91;4960036;28;20591;-64
2021/03/10 04:42:16;;;;;;;49.15;33.25;;;3.90;81.30;;;1.99;76.31;96085.31;4952115;28;20129;-64
2021/03/10 04:44:42;;;;;;;53.03;34.80;;;3.80;81.60;;;1.99;76.97;96094.88;4937332;28;20422;-64
2021/03/10 04:47:08;;;;;;;52.97;35.30;;;3.80;81.60;;;1.98;76.92;96095.81;4939906;28;20180;-69
2021/03/10 04:49:33;;;;;;;48.70;33.78;;;3.70;82.00;;;1.99;76.88;96092.28;4949569;29;20494;-69
2021/03/10 04:51:59;;;;;;;50.83;34.03;;;3.80;81.80;;;2.00;76.62;96101.69;4950381;28;20039;-69
2021/03/10 04:54:25;;;;;;;53.83;35.38;;;3.80;81.70;;;2.00;77.33;96105.09;4949256;28;20118;-69
2021/03/10 04:56:51;;;;;;;51.50;34.53;;;3.80;81.70;;;2.01;77.12;96101.56;4917483;29;20031;-74
2021/03/10 04:59:16;;;;;;;54.50;35.20;;;3.90;81.50;;;2.01;76.74;96101.56;4945750;28;20106;-74
2021/03/10 05:01:42;;;;;;;51.88;35.15;;;3.80;81.60;;;2.02;76.35;96104.97;4932927;28;20031;-74
2021/03/10 05:04:08;;;;;;;53.80;35.55;;;3.90;81.50;;;2.02;76.68;96102.38;4914259;29;20127;-74
2021/03/10 05:06:34;;;;;;;52.70;35.95;;;3.80;81.50;;;2.03;77.07;96109.19;4929369;28;20106;-74
2021/03/10 05:08:59;;;;;;;55.10;36.83;;;3.90;81.50;;;2.01;77.14;96101.56;4944347;28;20526;-74
2021/03/10 05:11:25;;;;;;;56.97;36.85;;;3.80;81.70;;;2.04;76.91;96106.50;4932969;28;20063;-74
2021/03/10 05:13:51;;;;;;;53.55;35.70;;;3.90;81.40;;;2.03;76.63;96110.03;4914031;29;20127;-74
2021/03/10 05:16:17;;;;;;;54.70;36.05;;;3.80;81.60;;;2.04;76.78;96110.88;4932965;29;20110;-74
2021/03/10 05:18:43;;;;;;;59.30;38.45;;;3.80;81.60;;;2.04;77.23;96110.88;4914027;29;20036;-74
2021/03/10 05:21:09;;;;;;;56.63;37.60;;;3.80;81.80;;;2.03;77.20;96110.03;4913866;29;20542;-74
2021/03/10 05:23:35;;;;;;;66.53;42.88;;;3.70;81.80;;;2.03;77.46;96106.59;4927536;28;20035;-73
2021/03/10 05:26:00;;;;;;;63.08;39.88;;;3.80;82.40;;;2.03;77.37;96109.19;4948624;28;20075;-74
2021/03/10 05:28:26;;;;;;;66.95;43.03;;;3.80;82.00;;;2.05;77.18;96117.69;4929279;29;20039;-74
2021/03/10 05:30:52;;;;;;;65.70;41.03;;;3.90;83.00;;;2.07;77.09;96111.41;4915999;29;20055;-74
2021/03/10 05:33:18;;;;;;;68.25;44.05;;;4.00;82.10;;;2.10;77.46;96118.91;4948424;28;20043;-74
2021/03/10 05:35:43;;;;;;;69.60;44.47;;;4.00;82.00;;;2.12;78.16;96121.38;4945866;28;20444;-74
2021/03/10 05:38:09;;;;;;;59.35;37.55;;;4.00;81.90;;;2.12;77.20;96118.78;4948785;29;20067;-74
2021/03/10 05:40:35;;;;;;;53.80;36.60;;;4.00;81.30;;;2.09;77.47;96125.06;4949111;29;20043;-74
2021/03/10 05:43:01;;;;;;;57.78;37.90;;;3.80;81.80;;;2.11;77.59;96127.53;4927960;28;20095;-74
2021/03/10 05:45:27;;;;;;;57.20;38.45;;;3.90;81.60;;;2.10;77.60;96133.66;4932947;29;20035;-74
2021/03/10 05:47:52;;;;;;;57.90;38.42;;;3.90;81.40;;;2.09;77.17;96134.63;4916976;29;20040;-74
2021/03/10 05:50:18;;;;;;;60.70;38.42;;;3.90;81.60;;;2.09;77.06;96130.25;4929251;28;20068;-71
2021/03/10 05:52:44;;;;;;;57.40;37.65;;;3.90;81.50;;;2.08;77.25;96127.81;4928285;29;20178;-71
2021/03/10 05:55:10;;;;;;;54.95;36.72;;;3.90;81.70;;;2.08;77.08;96138.19;4928442;29;20408;-68
2021/03/10 05:57:36;;;;;;;57.60;38.22;;;3.80;81.70;;;2.05;77.20;96125.47;4929620;29;20028;-69
2021/03/10 06:00:12;;;;;;;58.28;38.33;;;3.70;82.20;;;2.02;79.19;96128.31;4932345;29;20053;-69
2021/03/10 06:02:38;;;;;;;65.00;40.33;;;3.70;82.30;;;2.00;77.76;96130.22;4932646;29;20043;-68
2021/03/10 06:05:16;;;;;;;61.40;39.45;;;3.70;82.70;;;1.96;77.42;96123.69;4947517;28;20067;-68
2021/03/10 06:07:41;;;;;;;66.05;40.38;;;3.60;82.70;;;1.92;77.21;96127.50;4934132;29;20036;-72
2021/03/10 06:10:08;;;;;;;61.05;38.60;;;3.60;82.60;;;1.90;77.71;96130.22;4948412;29;20040;-74
2021/03/10 06:12:40;;;;;;;60.10;38.17;;;3.60;82.90;;;1.89;79.25;96127.78;4948811;28;20051;-72
2021/03/10 06:15:07;;;;;;;62.67;39.83;;;3.60;82.70;;;1.89;77.65;96132.97;4940558;29;20032;-68
2021/03/10 06:17:41;;;;;;;110.43;47.42;;;3.60;82.70;;;1.89;79.42;96131.19;4951884;29;20114;-66
2021/03/10 06:20:07;;;;;;;61.83;40.10;;;3.70;82.80;;;1.89;77.99;96143.34;4951767;28;20410;-70
2021/03/10 06:22:34;;;;;;;59.88;38.72;;;3.70;82.40;;;1.91;78.04;96146.63;4933119;29;20036;-70
2021/03/10 06:25:01;;;;;;;66.80;41.70;;;3.70;82.40;;;1.92;77.83;96145.66;4950799;28;20582;-66
2021/03/10 06:27:26;;;;;;;66.90;42.22;;;3.70;82.30;;;1.95;77.58;96154.00;4965419;28;20109;-66
2021/03/10 06:29:59;;;;;;;60.40;38.53;;;3.80;82.40;;;2.00;79.77;96148.38;4955419;28;20495;-67
2021/03/10 06:32:25;;;;;;;61.00;39.97;;;3.90;82.10;;;2.03;77.85;96148.94;4936859;29;20042;-67
2021/03/10 06:34:52;;;;;;;65.18;39.88;;;3.90;81.90;;;2.05;77.71;96144.47;4957777;28;20032;-67
2021/03/10 06:37:44;;;;;;;58.42;38.90;;;3.90;81.90;;;2.10;80.79;96154.44;4932248;28;20031;-67
2021/03/10 06:40:11;;;;;;;62.10;40.05;;;4.00;81.90;;;2.15;77.45;96154.84;4936550;28;20058;-67
2021/03/10 06:42:37;;;;;;;63.63;40.22;;;4.10;81.80;;;2.17;77.78;96158.09;4952101;28;20122;-67
2021/03/10 06:45:03;;;;;;;58.83;39.17;;;4.10;81.40;;;2.23;77.91;96167.94;4935816;28;20289;-67
2021/03/10 06:47:40;;;;;;;60.65;38.55;;;4.20;81.40;;;2.26;79.20;96175.44;4936206;29;20027;-67
2021/03/10 06:50:07;;;;;;;58.20;37.92;;;4.20;81.60;;;2.29;77.70;96172.59;4935838;28;20043;-67
2021/03/10 06:52:33;;;;;;;58.95;39.03;;;4.20;81.20;;;2.35;77.60;96179.84;4952109;28;20488;-67
2021/03/10 06:55:00;;;;;;;60.30;38.15;;;4.30;81.00;;;2.39;77.60;96178.59;4936066;29;20047;-68
2021/03/10 06:57:26;;;;;;;58.13;37.50;;;4.30;81.00;;;2.44;78.00;96179.00;4935355;28;20047;-67
2021/03/10 06:59:56;;;;;;;57.92;37.67;;;4.40;80.70;;;2.51;78.72;96186.28;4920191;29;20103;-67
2021/03/10 07:02:29;;;;;;;56.90;38.10;;;4.50;80.40;;;2.55;78.65;96183.25;4932119;29;20636;-67
2021/03/10 07:04:56;;;;;;;56.67;37.83;;;4.50;80.20;;;2.61;77.57;96192.28;4917662;29;20571;-66
2021/03/10 07:07:26;;;;;;;51.60;36.13;;;4.60;80.10;;;2.63;77.76;96192.94;4906956;29;20111;-68
2021/03/10 07:09:52;;;;;;;54.83;36.72;;;4.50;80.30;;;2.67;77.60;96183.91;4922144;29;20058;-67
2021/03/10 07:12:19;;;;;;;54.28;36.95;;;4.60;80.20;;;2.72;77.99;96189.53;4935917;29;20170;-67
2021/03/10 07:14:46;;;;;;;59.60;38.92;;;4.60;80.00;;;2.75;77.31;96203.06;4951900;28;20039;-69
2021/03/10 07:17:17;;;;;;;57.60;37.03;;;4.70;79.90;;;2.79;77.89;96206.22;4950707;28;20118;-68
2021/03/10 07:19:44;;;;;;;55.50;35.70;;;4.70;80.00;;;2.84;76.98;96204.00;4933028;28;20028;-69
2021/03/10 07:22:26;;;;;;;55.03;35.58;;;4.80;79.80;;;2.89;77.85;96212.19;4948197;29;20048;-68
2021/03/10 07:25:03;;;;;;;51.70;34.47;;;4.80;79.70;;;2.97;77.80;96209.75;4946496;29;20507;-68
2021/03/10 07:27:58;;;;;;;52.90;34.90;;;5.00;79.10;;;3.05;78.34;96211.63;4935689;28;20034;-68
2021/03/10 07:30:37;;;;;;;54.00;35.00;;;5.10;79.10;;;3.08;78.44;96212.16;4919383;29;20522;-68
2021/03/10 07:33:08;;;;;;;53.42;34.05;;;5.00;78.80;;;3.13;77.08;96218.72;4951059;28;20039;-69
2021/03/10 07:35:54;;;;;;;56.88;36.80;;;5.10;78.80;;;3.20;78.83;96219.81;4931505;29;20063;-68
2021/03/10 07:38:22;;;;;;;56.17;36.90;;;5.30;78.40;;;3.30;76.69;96220.59;4914985;29;20035;-68
2021/03/10 07:41:14;;;;;;;55.05;35.78;;;5.50;78.00;;;3.46;78.67;96230.41;4939262;29;20044;-67
2021/03/10 07:43:48;;;;;;;53.60;36.67;;;5.80;77.50;;;3.59;77.38;96234.31;4929971;28;20043;-69
2021/03/10 07:46:24;;;;;;;55.40;35.38;;;5.80;76.60;;;3.69;77.21;96237.72;4918027;29;20036;-67
2021/03/10 07:48:50;;;;;;;55.67;35.17;;;5.80;76.40;;;3.71;76.01;96232.38;4934515;29;20039;-69
2021/03/10 07:51:31;;;;;;;51.78;35.08;;;5.70;77.10;;;3.76;77.27;96237.16;4950181;28;20027;-69
2021/03/10 07:53:57;;;;;;;63.33;39.70;;;5.70;77.40;;;3.78;76.04;96243.03;4966249;28;20527;-68
2021/03/10 07:56:33;;;;;;;58.35;38.97;;;5.70;77.60;;;3.83;77.11;96244.22;4953104;28;20298;-67
2021/03/10 07:59:16;;;;;;;56.97;35.78;;;5.70;77.30;;;3.87;76.97;96243.00;4950213;28;20077;-68
2021/03/10 08:01:42;;;;;;;54.03;35.28;;;5.80;77.30;;;3.86;75.76;96237.94;4944733;29;20094;-69
2021/03/10 08:04:15;;;;;;;57.13;34.95;;;5.60;77.10;;;3.84;76.23;96242.44;4933842;29;20043;-68
2021/03/10 08:06:54;;;;;;;51.72;34.03;;;5.50;77.80;;;3.79;76.69;96250.69;4940352;28;20031;-70
2021/03/10 08:09:22;;;;;;;54.28;35.10;;;5.50;77.60;;;3.78;75.70;96250.84;4943632;28;20590;-69
2021/03/10 08:12:02;;;;;;;55.55;32.97;;;5.60;77.90;;;3.76;75.51;96247.56;4950338;28;20042;-68
2021/03/10 08:14:44;;;;;;;52.08;33.50;;;5.60;77.50;;;3.74;76.64;96242.50;4955395;28;20036;-68
2021/03/10 08:17:20;;;;;;;52.90;33.33;;;5.50;77.50;;;3.71;76.79;96242.78;4914736;29;20102;-69
2021/03/10 08:19:53;;;;;;;50.60;33.90;;;5.50;77.80;;;3.74;76.78;96241.69;4931435;28;20031;-68
2021/03/10 08:22:24;;;;;;;50.33;33.17;;;5.50;78.10;;;3.78;76.40;96254.25;4939766;28;20123;-70
2021/03/10 08:25:00;;;;;;;49.00;32.35;;;5.60;78.20;;;3.81;76.80;96245.34;4946582;28;20086;-70
2021/03/10 08:27:36;;;;;;;54.25;34.53;;;5.60;77.90;;;3.86;76.44;96248.34;4931365;28;20027;-69
2021/03/10 08:30:05;;;;;;;59.13;38.03;;;5.70;77.30;;;3.93;75.70;96254.63;4950003;28;20031;-70
2021/03/10 08:32:31;;;;;;;52.67;33.47;;;5.80;77.10;;;3.98;75.29;96257.59;4933622;28;20106;-69
2021/03/10 08:35:05;;;;;;;54.53;34.72;;;5.90;76.60;;;4.03;75.37;96263.19;4936959;28;20028;-68
2021/03/10 08:37:31;;;;;;;53.60;34.08;;;5.90;76.40;;;4.07;75.31;96261.91;4947909;28;20114;-68
2021/03/10 08:39:56;;;;;;;49.40;32.80;;;6.00;76.70;;;4.16;74.97;96255.03;4950820;28;20024;-70
2021/03/10 08:42:23;;;;;;;50.97;33.67;;;6.10;76.00;;;4.26;74.65;96248.81;4950738;28;20090;-72
2021/03/10 08:44:50;;;;;;;49.72;32.47;;;6.30;74.70;;;4.33;74.75;96254.28;4949552;29;20035;-71
2021/03/10 08:47:26;;;;;;;48.50;32.78;;;6.30;75.00;;;4.41;74.76;96248.31;4947998;28;20035;-70
2021/03/10 08:49:59;;;;;;;49.67;32.53;;;6.30;74.50;;;4.44;74.80;96259.25;4934168;29;20514;-69
2021/03/10 08:52:26;;;;;;;49.58;32.00;;;6.40;74.70;;;4.48;74.58;96249.34;4934253;29;20039;-69
2021/03/10 08:54:59;;;;;;;50.70;33.60;;;6.40;74.70;;;4.49;74.58;96256.22;4933301;28;20546;-69
2021/03/10 08:57:31;;;;;;;51.58;34.38;;;6.30;74.90;;;4.50;74.60;96265.66;4948393;28;20062;-69
2021/03/10 08:59:58;;;;;;;54.33;34.30;;;6.40;75.20;;;4.50;74.10;96268.25;4933949;29;20126;-69
2021/03/10 09:02:42;;;;;;;55.15;32.55;;;6.40;75.10;;;4.50;75.11;96265.66;4940719;28;20054;-70
2021/03/10 09:05:08;;;;;;;55.05;37.03;;;6.40;75.10;;;4.49;73.87;96275.25;4932715;29;20038;-69
2021/03/10 09:07:34;;;;;;;52.13;33.75;;;6.30;75.80;;;4.48;74.19;96270.19;4946063;28;20108;-69
2021/03/10 09:10:07;;;;;;;47.70;30.80;;;6.20;75.20;;;4.46;74.27;96277.34;4944687;28;20051;-70
2021/03/10 09:12:33;;;;;;;45.53;31.23;;;6.20;75.20;;;4.46;73.97;96261.72;4933122;29;20031;-70
2021/03/10 09:14:59;;;;;;;49.22;31.30;;;6.20;75.10;;;4.45;73.97;96260.91;4948753;28;20070;-71
2021/03/10 09:17:36;;;;;;;56.85;33.10;;;6.30;74.50;;;4.44;74.63;96263.66;4917030;28;20043;-69
2021/03/10 09:20:07;;;;;;;49.45;31.73;;;6.20;75.10;;;4.46;74.58;96265.13;4948853;28;20074;-69
2021/03/10 09:22:40;;;;;;;47.35;30.60;;;6.20;75.00;;;4.48;73.79;96268.41;4937782;29;20047;-68
2021/03/10 09:25:18;;;;;;;49.47;32.67;;;6.30;74.80;;;4.49;74.11;96280.47;4934608;28;20157;-69
2021/03/10 09:27:44;;;;;;;50.22;31.45;;;6.20;74.70;;;4.47;73.29;96273.75;4920541;29;20364;-70
2021/03/10 09:30:35;;;;;;;49.08;31.33;;;6.20;75.00;;;4.49;74.42;96277.03;4948827;28;20118;-69
2021/03/10 09:33:01;;;;;;;51.15;31.77;;;6.30;75.30;;;4.51;73.28;96267.28;4935041;29;20051;-69
2021/03/10 09:35:35;;;;;;;49.70;32.17;;;6.40;74.40;;;4.49;73.91;96275.25;4933266;28;20448;-68
2021/03/10 09:38:04;;;;;;;52.47;32.30;;;6.20;74.30;;;4.47;73.18;96269.38;4932331;29;20515;-68
2021/03/10 09:40:40;;;;;;;50.03;31.55;;;6.20;74.20;;;4.45;74.33;96275.69;4945286;28;20043;-68
2021/03/10 09:43:08;;;;;;;49.22;32.08;;;6.20;74.80;;;4.43;73.45;96275.84;4947648;28;20042;-67
2021/03/10 09:45:35;;;;;;;48.20;31.48;;;6.20;74.90;;;4.46;73.46;96277.34;4948494;29;20542;-68
2021/03/10 09:48:19;;;;;;;47.75;31.33;;;6.30;74.70;;;4.46;74.03;96272.94;4915975;28;20039;-68
2021/03/10 09:50:46;;;;;;;44.15;29.75;;;6.30;74.80;;;4.42;73.56;96276.00;4937791;29;20051;-68
2021/03/10 09:53:23;;;;;;;48.38;31.23;;;6.10;75.00;;;4.41;74.22;96289.97;4932751;29;20051;-70
2021/03/10 09:55:48;;;;;;;47.75;30.40;;;6.10;75.00;;;4.35;73.37;96285.38;4952591;28;20534;-66
2021/03/10 09:58:14;;;;;;;44.88;30.55;;;6.10;75.50;;;4.32;73.48;96285.66;4936412;28;20036;-68
2021/03/10 10:00:42;;;;;;;56.50;36.30;;;6.00;76.10;;;4.26;73.62;96277.44;4952745;29;20511;-69
2021/03/10 10:03:08;;;;;;;54.28;33.22;;;6.00;76.20;;;4.29;73.84;96287.56;4939422;28;20387;-68
2021/03/10 10:05:39;;;;;;;48.67;31.52;;;6.20;75.90;;;4.39;74.46;96284.94;4952607;28;20043;-68
2021/03/10 10:08:07;;;;;;;50.20;31.35;;;6.40;75.10;;;4.46;73.85;96278.16;4936727;29;20031;-69
2021/03/10 10:10:34;;;;;;;50.42;31.42;;;6.60;74.50;;;4.59;73.77;96288.25;4962115;28;20054;-67
2021/03/10 10:13:00;;;;;;;49.10;31.80;;;6.70;74.60;;;4.68;73.50;96276.91;4950771;28;20038;-68
2021/03/10 10:15:30;;;;;;;47.70;31.00;;;6.80;74.40;;;4.81;73.98;96277.38;4954379;28;20031;-68
2021/03/10 10:17:57;;;;;;;49.75;32.03;;;7.00;73.00;;;4.93;73.75;96281.38;4942703;28;20034;-68
2021/03/10 10:20:27;;;;;;;44.65;28.95;;;7.10;73.30;;;5.06;73.76;96285.41;4958485;28;20147;-66
2021/03/10 10:22:52;;;;;;;48.15;29.80;;;7.30;71.90;;;5.22;73.43;96283.78;4957035;28;20046;-67
2021/03/10 10:25:18;;;;;;;58.60;36.47;;;7.60;71.60;;;5.44;72.80;96279.03;4941544;28;20047;-67
2021/03/10 10:27:44;;;;;;;42.78;29.15;;;8.00;70.40;;;5.71;72.76;96275.47;4954664;28;20127;-67